Time;durP1;ratioP1;P1;durP2;ratioP2;P2;SDS_P1;SDS_P2;PMS_P1;PMS_P2;Temp;Humidity;BMP_temperature;BMP_pressure;BME280_temperature;BME280_humidity;BME280_pressure;Samples;Min_cycle;Max_cycle;Signal;HPM_P1;HPM_P2
2023/10/25 00:02:00;;;;;;;16.92;9.27;;;;;;;17.41;83.49;99894.88;4952353;28;96712;-79
2023/10/25 00:04:26;;;;;;;12.13;9.10;;;;;;;17.57;83.27;99903.41;4951163;28;96919;-79
2023/10/25 00:06:53;;;;;;;11.57;8.90;;;;;;;17.49;83.36;99900.47;4949473;28;98141;-79
2023/10/25 00:09:20;;;;;;;13.45;9.02;;;;;;;17.50;83.10;99903.03;4949463;28;98760;-79
2023/10/25 00:11:47;;;;;;;15.05;10.02;;;;;;;17.42;84.10;99899.25;4954096;28;96795;-79
2023/10/25 00:14:13;;;;;;;16.00;10.52;;;;;;;17.35;83.79;99903.34;4950025;28;97312;-79
2023/10/25 00:16:39;;;;;;;12.38;9.10;;;;;;;17.50;83.03;99904.84;4952921;28;99545;-79
2023/10/25 00:19:06;;;;;;;13.18;9.57;;;;;;;17.48;83.32;99904.13;4953168;28;98153;-79
2023/10/25 00:21:32;;;;;;;13.65;9.43;;;;;;;17.40;83.76;99910.03;4954653;28;98448;-78
2023/10/25 00:23:58;;;;;;;14.50;8.98;;;;;;;17.34;83.81;99909.66;4961079;28;97132;-79
2023/10/25 00:26:26;;;;;;;13.57;9.13;;;;;;;17.61;82.85;99898.69;4947800;28;98889;-79
2023/10/25 00:28:53;;;;;;;11.73;8.75;;;;;;;17.49;82.93;99905.81;4949011;28;100104;-80
2023/10/25 00:31:20;;;;;;;11.98;8.55;;;;;;;17.49;83.26;99908.50;4954986;28;96772;-79
2023/10/25 00:33:46;;;;;;;11.73;8.57;;;;;;;17.48;82.65;99912.97;4955544;28;96723;-80
2023/10/25 00:36:12;;;;;;;11.65;8.35;;;;;;;17.31;83.49;99905.41;4951375;28;101727;-80
2023/10/25 00:38:39;;;;;;;10.65;8.55;;;;;;;17.22;83.97;99902.59;4947430;28;98810;-80
2023/10/25 00:41:05;;;;;;;11.13;8.40;;;;;;;17.21;84.34;99900.88;4946275;28;96846;-80
2023/10/25 00:43:33;;;;;;;9.77;8.57;;;;;;;17.24;84.10;99906.00;4949495;28;97533;-80
2023/10/25 00:46:12;;;;;;;10.40;7.82;;;;;;;17.25;83.86;99902.38;4949996;28;98172;-80
2023/10/25 00:48:40;;;;;;;9.95;7.40;;;;;;;17.24;83.65;99892.66;4946498;28;99179;-80
2023/10/25 00:51:09;;;;;;;8.73;7.60;;;;;;;17.33;83.43;99899.94;4954965;28;96775;-80
2023/10/25 00:53:38;;;;;;;9.18;7.35;;;;;;;17.31;82.85;99891.22;4956036;28;97026;-80
2023/10/25 00:56:06;;;;;;;9.77;7.30;;;;;;;17.34;82.63;99891.81;4947908;28;99051;-80
2023/10/25 00:58:34;;;;;;;9.15;7.00;;;;;;;17.23;83.08;99901.63;4947937;28;98977;-80
2023/10/25 01:01:01;;;;;;;7.95;6.63;;;;;;;17.26;83.01;99894.25;4955121;28;96705;-86
2023/10/25 01:03:27;;;;;;;8.15;5.80;;;;;;;17.23;82.98;99885.59;4961779;28;96907;-78
2023/10/25 01:05:55;;;;;;;7.10;6.40;;;;;;;17.22;82.63;99886.56;4947602;28;98902;-79
2023/10/25 01:08:22;;;;;;;7.60;5.82;;;;;;;17.07;83.31;99883.25;4949000;28;99135;-79
2023/10/25 01:10:50;;;;;;;6.28;4.97;;;;;;;17.03;83.20;99882.63;4951562;28;96817;-79
2023/10/25 01:13:17;;;;;;;5.78;5.03;;;;;;;17.02;83.93;99880.94;4946679;28;96877;-79
2023/10/25 01:15:45;;;;;;;6.68;5.18;;;;;;;17.06;83.45;99879.75;4949051;28;99711;-78
2023/10/25 01:18:12;;;;;;;5.50;4.97;;;;;;;17.08;83.40;99877.78;4947481;28;99226;-79
2023/10/25 01:20:38;;;;;;;7.30;5.05;;;;;;;17.27;82.33;99879.06;4948803;28;96834;-79
2023/10/25 01:23:06;;;;;;;6.70;5.70;;;;;;;17.16;82.92;99871.88;4957733;28;96895;-85
2023/10/25 01:25:33;;;;;;;7.63;5.25;;;;;;;17.03;83.45;99877.31;4961164;28;97055;-86
2023/10/25 01:28:00;;;;;;;9.90;5.93;;;;;;;17.19;83.29;99876.13;4946249;28;100917;-80
2023/10/25 01:30:26;;;;;;;6.93;5.68;;;;;;;16.90;83.66;99871.19;4943912;28;97425;-80
2023/10/25 01:32:53;;;;;;;9.02;5.75;;;;;;;16.96;83.60;99873.38;4949416;28;96822;-80
2023/10/25 01:35:20;;;;;;;5.38;4.63;;;;;;;17.15;83.34;99878.19;4948826;28;97587;-78
2023/10/25 01:37:46;;;;;;;5.70;4.90;;;;;;;17.25;82.60;99876.53;4949366;28;98191;-78
2023/10/25 01:40:14;;;;;;;4.90;4.45;;;;;;;17.29;81.60;99877.97;4952331;28;97230;-79
2023/10/25 01:42:40;;;;;;;6.63;4.53;;;;;;;17.27;81.91;99884.38;4950827;28;96827;-79
2023/10/25 01:45:07;;;;;;;6.55;4.50;;;;;;;17.45;81.36;99883.84;4946114;28;98054;-79
2023/10/25 01:47:34;;;;;;;5.30;4.80;;;;;;;17.26;81.63;99885.38;4948187;28;98347;-78
2023/10/25 01:50:00;;;;;;;4.25;3.85;;;;;;;17.49;81.40;99889.78;4946232;28;96866;-80
2023/10/25 01:52:27;;;;;;;4.97;4.18;;;;;;;17.41;81.49;99892.19;4946313;28;96790;-79
2023/10/25 01:54:53;;;;;;;5.32;4.72;;;;;;;17.49;81.15;99896.00;4951237;28;98993;-77
2023/10/25 01:57:21;;;;;;;5.38;4.82;;;;;;;17.54;80.70;99893.81;4951169;28;99761;-81
2023/10/25 01:59:47;;;;;;;8.35;6.00;;;;;;;17.52;80.62;99892.25;4948757;28;96847;-81
2023/10/25 02:02:14;;;;;;;7.90;6.80;;;;;;;17.50;80.21;99895.03;4954686;28;97471;-82
2023/10/25 02:04:40;;;;;;;11.15;8.35;;;;;;;17.27;80.85;99901.25;4956837;28;99466;-82
2023/10/25 02:07:07;;;;;;;12.90;9.15;;;;;;;17.30;80.85;99894.84;4948592;28;99205;-81
2023/10/25 02:09:33;;;;;;;10.70;8.75;;;;;;;17.19;81.58;99902.84;4952578;28;97792;-81
2023/10/25 02:12:00;;;;;;;12.18;9.35;;;;;;;17.26;81.71;99898.72;4958345;28;97076;-82
2023/10/25 02:14:27;;;;;;;13.65;8.98;;;;;;;17.35;81.21;99900.69;4945698;28;101165;-82
2023/10/25 02:16:54;;;;;;;14.32;9.20;;;;;;;17.52;80.56;99900.25;4950041;28;99374;-82
2023/10/25 02:19:20;;;;;;;10.95;9.52;;;;;;;17.50;80.11;99896.84;4949980;28;97234;-83
2023/10/25 02:21:47;;;;;;;14.00;10.35;;;;;;;17.57;79.70;99900.75;4952646;28;97640;-81
2023/10/25 02:24:15;;;;;;;12.55;10.48;;;;;;;17.32;80.13;99900.94;4949952;28;101861;-82
2023/10/25 02:26:41;;;;;;;16.30;11.75;;;;;;;17.42;79.94;99904.59;4951986;28;102145;-82
2023/10/25 02:29:08;;;;;;;15.18;11.88;;;;;;;17.34;79.91;99901.66;4952787;28;96825;-81
2023/10/25 02:31:36;;;;;;;18.85;13.13;;;;;;;17.41;79.88;99908.22;4955483;28;97131;-82
2023/10/25 02:34:03;;;;;;;16.08;12.38;;;;;;;17.41;79.80;99908.22;4944569;28;101575;-80
2023/10/25 02:36:30;;;;;;;17.88;12.82;;;;;;;17.64;78.92;99893.97;4951344;28;98805;-82
2023/10/25 02:38:57;;;;;;;20.88;13.88;;;;;;;17.48;79.25;99898.78;4947708;28;97372;-81
2023/10/25 02:41:23;;;;;;;19.25;13.95;;;;;;;17.64;79.30;99904.66;4950781;28;97463;-80
2023/10/25 02:43:51;;;;;;;18.30;14.18;;;;;;;17.52;79.38;99911.75;4954973;28;99637;-80
2023/10/25 02:46:17;;;;;;;18.90;13.93;;;;;;;17.52;79.35;99911.75;4955017;28;98051;-80
2023/10/25 02:48:45;;;;;;;18.95;14.43;;;;;;;17.36;79.10;99921.09;4949712;28;96770;-81
2023/10/25 02:51:11;;;;;;;18.65;14.48;;;;;;;17.51;78.99;99919.91;4958950;28;96818;-80
2023/10/25 02:53:37;;;;;;;18.45;14.43;;;;;;;17.51;78.72;99920.78;4951857;28;98160;-81
2023/10/25 02:56:05;;;;;;;18.50;13.77;;;;;;;17.41;78.94;99926.91;4950614;28;98773;-77
2023/10/25 02:58:33;;;;;;;18.10;14.52;;;;;;;17.32;79.78;99930.31;4952201;28;96740;-80
2023/10/25 03:00:59;;;;;;;17.83;14.75;;;;;;;17.56;78.92;99927.56;4952651;28;97077;-80
2023/10/25 03:03:28;;;;;;;18.45;15.23;;;;;;;17.27;79.11;99927.09;4946278;28;99509;-80
2023/10/25 03:05:57;;;;;;;19.83;14.65;;;;;;;17.29;78.81;99926.03;4950785;28;101398;-80
2023/10/25 03:08:24;;;;;;;17.83;14.07;;;;;;;16.80;79.93;99939.56;4951379;28;97677;-81
2023/10/25 03:10:50;;;;;;;16.30;13.95;;;;;;;17.25;79.49;99937.06;4949925;28;96953;-81
2023/10/25 03:13:17;;;;;;;18.98;14.27;;;;;;;17.37;77.92;99934.31;4950245;28;99412;-81
2023/10/25 03:15:43;;;;;;;19.27;14.07;;;;;;;17.26;77.62;99928.97;4948423;28;100098;-81
2023/10/25 03:18:09;;;;;;;21.08;14.20;;;;;;;17.28;77.95;99937.69;4959500;28;97086;-80
2023/10/25 03:20:36;;;;;;;18.80;14.38;;;;;;;17.32;77.52;99946.31;4953532;28;97138;-79
2023/10/25 03:23:04;;;;;;;17.98;14.32;;;;;;;17.21;77.98;99949.78;4955004;28;97885;-81
2023/10/25 03:25:30;;;;;;;17.38;14.15;;;;;;;17.07;79.15;99953.50;4948174;28;97938;-80
2023/10/25 03:27:56;;;;;;;18.20;14.25;;;;;;;17.01;78.98;99951.28;4947763;28;96833;-80
2023/10/25 03:30:23;;;;;;;19.35;14.88;;;;;;;16.93;79.72;99955.50;4949227;28;96963;-79
2023/10/25 03:32:49;;;;;;;21.67;14.85;;;;;;;16.94;79.75;99958.03;4949657;28;99373;-78
2023/10/25 03:35:15;;;;;;;18.63;13.95;;;;;;;16.80;80.01;99960.91;4949369;28;100568;-78
2023/10/25 03:37:42;;;;;;;17.08;13.60;;;;;;;16.87;78.20;99964.78;4951275;28;97328;-78
2023/10/25 03:40:11;;;;;;;16.98;13.05;;;;;;;16.79;78.21;99967.19;4950073;28;98750;-78
2023/10/25 03:42:38;;;;;;;19.35;12.65;;;;;;;16.84;78.20;99969.50;4943918;28;99362;-80
2023/10/25 03:45:06;;;;;;;16.70;12.70;;;;;;;16.91;77.66;99960.09;4944862;28;98937;-79
2023/10/25 03:47:34;;;;;;;15.30;12.48;;;;;;;16.98;76.06;99959.53;4950421;28;97055;-80
2023/10/25 03:50:01;;;;;;;19.02;12.15;;;;;;;16.96;76.78;99956.13;4955906;28;96746;-81
2023/10/25 03:52:27;;;;;;;16.23;12.18;;;;;;;16.98;75.68;99956.88;4950467;28;99185;-79
2023/10/25 03:54:54;;;;;;;15.68;11.32;;;;;;;16.85;75.38;99957.88;4949947;28;98881;-80
2023/10/25 03:57:21;;;;;;;18.67;12.88;;;;;;;16.90;75.97;99955.72;4950336;28;96816;-80
2023/10/25 03:59:48;;;;;;;14.15;11.73;;;;;;;17.07;74.69;99949.97;4950743;28;99129;-80
2023/10/25 04:02:14;;;;;;;17.08;12.80;;;;;;;16.96;75.32;99956.13;4949765;28;98993;-79
2023/10/25 04:04:41;;;;;;;15.50;12.35;;;;;;;16.74;75.73;99955.97;4949650;28;98978;-80
2023/10/25 04:07:08;;;;;;;16.90;12.70;;;;;;;16.54;76.69;99949.41;4957208;28;96758;-79
2023/10/25 04:09:34;;;;;;;14.50;12.07;;;;;;;16.39;77.45;99965.69;4944057;28;96934;-80
2023/10/25 04:12:00;;;;;;;17.05;12.05;;;;;;;16.29;76.84;99953.00;4947043;28;99722;-79
2023/10/25 04:14:28;;;;;;;14.95;11.93;;;;;;;16.29;76.33;99955.66;4950385;28;99522;-80
2023/10/25 04:16:54;;;;;;;16.58;11.88;;;;;;;16.32;76.60;99951.94;4951116;28;97040;-79
2023/10/25 04:19:21;;;;;;;15.32;11.18;;;;;;;16.62;75.89;99947.06;4943693;28;96826;-79
2023/10/25 04:21:47;;;;;;;15.30;11.57;;;;;;;16.40;74.88;99951.38;4949564;28;99388;-80
2023/10/25 04:24:13;;;;;;;15.60;12.23;;;;;;;16.34;75.13;99953.50;4960051;28;99041;-79
2023/10/25 04:26:40;;;;;;;16.40;11.25;;;;;;;16.24;75.29;99954.28;4950850;28;97007;-79
2023/10/25 04:29:06;;;;;;;15.55;11.50;;;;;;;16.46;74.81;99956.28;4957717;28;96944;-79
2023/10/25 04:31:34;;;;;;;14.98;11.57;;;;;;;16.34;74.96;99950.84;4947957;28;97805;-79
2023/10/25 04:34:00;;;;;;;16.80;12.10;;;;;;;16.07;75.70;99950.16;4951606;28;97632;-80
2023/10/25 04:36:26;;;;;;;16.58;12.43;;;;;;;16.27;74.64;99952.28;4948388;28;97040;-79
2023/10/25 04:38:53;;;;;;;19.02;13.40;;;;;;;16.21;75.47;99951.84;4950939;28;96933;-77
2023/10/25 04:41:19;;;;;;;15.50;12.20;;;;;;;16.05;76.00;99946.75;4948861;28;97049;-77
2023/10/25 04:43:45;;;;;;;17.42;12.55;;;;;;;16.08;76.67;99951.03;4953936;28;98142;-77
2023/10/25 04:46:14;;;;;;;19.48;13.32;;;;;;;15.77;77.47;99953.16;4948537;28;97044;-78
2023/10/25 04:48:42;;;;;;;18.55;13.52;;;;;;;15.75;77.95;99947.06;4943480;28;96777;-78
2023/10/25 04:51:13;;;;;;;16.45;13.05;;;;;;;15.82;78.19;99952.81;4949129;28;97781;-78
2023/10/25 04:53:39;;;;;;;19.85;13.93;;;;;;;15.74;78.35;99948.03;4949032;28;100205;-80
2023/10/25 04:56:06;;;;;;;18.58;13.73;;;;;;;15.81;77.98;99944.00;4944154;28;97624;-80
2023/10/25 04:58:33;;;;;;;19.70;13.23;;;;;;;15.91;77.35;99941.53;4951023;28;99847;-79
2023/10/25 05:00:59;;;;;;;18.77;14.85;;;;;;;15.61;78.79;99931.22;4950338;28;99366;-81
2023/10/25 05:03:26;;;;;;;21.42;14.85;;;;;;;15.63;78.89;99936.41;4958174;28;98200;-81
2023/10/25 05:05:55;;;;;;;18.02;13.55;;;;;;;15.59;78.61;99934.91;4959833;28;96698;-81
2023/10/25 05:08:21;;;;;;;20.75;14.75;;;;;;;15.62;78.13;99929.41;4955281;28;96877;-78
2023/10/25 05:10:52;;;;;;;19.67;14.57;;;;;;;15.77;77.71;99933.66;4946053;28;98260;-78
2023/10/25 05:13:19;;;;;;;18.27;13.50;;;;;;;15.77;77.26;99934.50;4946750;28;99785;-77
2023/10/25 05:15:46;;;;;;;18.98;14.73;;;;;;;15.66;77.24;99936.22;4946309;28;96920;-78
2023/10/25 05:18:13;;;;;;;18.45;14.18;;;;;;;15.50;78.33;99929.22;4947144;28;97744;-82
2023/10/25 05:20:41;;;;;;;18.60;13.93;;;;;;;15.60;77.99;99931.31;4952516;28;99179;-80
2023/10/25 05:23:10;;;;;;;19.00;13.65;;;;;;;15.63;77.43;99931.06;4954583;28;98781;-80
2023/10/25 05:25:38;;;;;;;20.38;13.68;;;;;;;15.66;77.74;99938.88;4953416;28;97196;-80
2023/10/25 05:28:05;;;;;;;17.70;12.98;;;;;;;15.49;77.62;99926.69;4955885;28;96869;-80
2023/10/25 05:30:32;;;;;;;21.80;14.65;;;;;;;15.57;78.22;99934.16;4953789;28;101527;-79
2023/10/25 05:33:01;;;;;;;19.15;13.45;;;;;;;15.49;77.52;99932.84;4949681;28;102515;-80
2023/10/25 05:35:28;;;;;;;18.55;13.43;;;;;;;15.56;77.38;99930.66;4949039;28;97065;-79
2023/10/25 05:37:55;;;;;;;19.75;13.85;;;;;;;15.54;78.05;99940.56;4949650;28;96796;-79
2023/10/25 05:40:24;;;;;;;21.63;13.75;;;;;;;15.54;77.36;99929.91;4956774;28;99461;-85
2023/10/25 05:42:56;;;;;;;18.40;13.82;;;;;;;15.52;76.69;99927.34;4947115;28;100034;-84
2023/10/25 05:45:22;;;;;;;18.23;13.75;;;;;;;15.52;76.94;99924.69;4945707;28;96849;-83
2023/10/25 05:47:49;;;;;;;24.17;16.65;;;;;;;15.60;76.79;99933.97;4947591;28;96933;-84
2023/10/25 05:50:17;;;;;;;18.73;13.90;;;;;;;15.36;77.79;99929.31;4951526;28;102184;-83
2023/10/25 05:52:45;;;;;;;21.45;14.18;;;;;;;15.16;78.47;99927.19;4952768;28;98099;-85
2023/10/25 05:55:13;;;;;;;22.67;14.95;;;;;;;15.51;77.40;99930.09;4950950;28;96788;-84
2023/10/25 05:57:43;;;;;;;21.02;14.48;;;;;;;15.30;77.57;99935.06;4948640;28;97151;-86
2023/10/25 06:00:10;;;;;;;23.55;17.08;;;;;;;15.36;78.58;99941.81;4952053;28;101663;-82
2023/10/25 06:02:38;;;;;;;20.40;14.88;;;;;;;15.24;77.95;99943.47;4947943;28;97964;-81
2023/10/25 06:05:11;;;;;;;41.03;25.92;;;;;;;15.13;78.57;99946.00;4955117;28;97170;-81
2023/10/25 06:07:38;;;;;;;24.55;16.33;;;;;;;15.36;78.21;99949.78;4949348;28;96807;-81
2023/10/25 06:10:06;;;;;;;20.50;14.98;;;;;;;15.47;77.40;99944.56;4948933;28;98479;-79
2023/10/25 06:12:33;;;;;;;21.95;15.68;;;;;;;15.52;77.94;99948.66;4946644;28;99103;-79
2023/10/25 06:15:00;;;;;;;25.13;16.02;;;;;;;15.46;77.92;99964.16;4949877;28;96701;-85
2023/10/25 06:17:28;;;;;;;23.17;14.88;;;;;;;15.33;78.55;99965.94;4951957;28;97131;-86
2023/10/25 06:19:54;;;;;;;22.70;15.80;;;;;;;15.37;78.58;99962.13;4950156;28;101094;-77
2023/10/25 06:22:21;;;;;;;25.35;16.20;;;;;;;15.19;79.25;99961.56;4945986;28;99016;-76
2023/10/25 06:24:47;;;;;;;23.30;16.00;;;;;;;15.20;79.36;99951.75;4942170;28;99140;-76
2023/10/25 06:27:14;;;;;;;22.10;15.60;;;;;;;15.35;78.47;99964.06;4940763;28;97947;-77
2023/10/25 06:29:40;;;;;;;24.92;16.42;;;;;;;15.46;78.29;99962.34;4940624;28;100468;-77
2023/10/25 06:32:08;;;;;;;19.75;16.20;;;;;;;15.64;77.21;99962.09;4944843;28;98619;-80
2023/10/25 06:34:34;;;;;;;23.17;17.15;;;;;;;15.59;77.47;99974.88;4946641;28;97530;-80
2023/10/25 06:37:01;;;;;;;24.27;16.40;;;;;;;15.60;77.44;99977.44;4937140;28;97847;-82
2023/10/25 06:39:28;;;;;;;26.88;16.80;;;;;;;15.58;77.81;99968.69;4938877;28;99751;-85
2023/10/25 06:41:55;;;;;;;24.67;17.25;;;;;;;15.50;78.61;99969.16;4957122;28;99568;-82
2023/10/25 06:44:22;;;;;;;24.55;17.67;;;;;;;15.46;78.52;99965.03;4954995;28;96751;-82
2023/10/25 06:46:50;;;;;;;24.85;17.83;;;;;;;15.58;78.53;99974.00;4957878;28;96966;-80
2023/10/25 06:49:18;;;;;;;22.70;17.52;;;;;;;15.70;78.31;99975.84;4950245;28;99166;-78
2023/10/25 06:51:45;;;;;;;26.55;17.67;;;;;;;15.83;77.88;99971.38;4947242;28;98982;-83
2023/10/25 06:54:12;;;;;;;25.38;18.83;;;;;;;15.83;77.95;99978.50;4958934;28;96736;-83
2023/10/25 06:56:40;;;;;;;26.88;18.38;;;;;;;15.80;78.07;99973.41;4957351;28;97830;-83
2023/10/25 06:59:07;;;;;;;26.92;19.55;;;;;;;15.90;77.90;99979.78;4941296;28;101357;-79
2023/10/25 07:01:39;;;;;;;25.55;18.35;;;;;;;16.05;77.08;99983.19;4949949;28;101472;-81
2023/10/25 07:04:12;;;;;;;27.92;19.27;;;;;;;16.17;76.72;99985.84;4945449;28;96841;-83
2023/10/25 07:06:47;;;;;;;27.63;19.08;;;;;;;16.02;75.63;99986.91;4959030;28;96969;-81
2023/10/25 07:09:15;;;;;;;28.50;19.48;;;;;;;15.98;77.35;99984.59;4960827;28;101502;-81
2023/10/25 07:11:41;;;;;;;29.55;19.30;;;;;;;16.02;76.34;99978.06;4959105;28;99341;-81
2023/10/25 07:14:08;;;;;;;24.85;17.98;;;;;;;15.98;77.36;99981.91;4960605;28;96860;-82
2023/10/25 07:16:35;;;;;;;32.17;20.23;;;;;;;16.12;76.90;99979.16;4950686;28;97675;-83
2023/10/25 07:19:02;;;;;;;28.55;17.70;;;;;;;16.07;76.66;99981.28;4952466;28;98131;-82
2023/10/25 07:21:30;;;;;;;26.52;18.70;;;;;;;15.93;76.56;99985.78;4951451;28;100879;-82
2023/10/25 07:23:58;;;;;;;28.85;17.55;;;;;;;15.96;77.14;99984.69;4950084;28;96949;-82
2023/10/25 07:26:24;;;;;;;26.85;17.60;;;;;;;15.89;76.95;99980.75;4957576;28;96883;-83
2023/10/25 07:28:51;;;;;;;32.40;18.65;;;;;;;16.06;76.61;99991.09;4959286;28;101708;-81
2023/10/25 07:31:18;;;;;;;26.95;18.27;;;;;;;16.07;76.55;99984.81;4963143;28;101426;-80
2023/10/25 07:33:45;;;;;;;31.30;19.42;;;;;;;16.11;76.62;99986.28;4956545;28;96803;-81
2023/10/25 07:36:11;;;;;;;27.52;19.83;;;;;;;16.17;76.09;99977.84;4963105;28;96662;-80
2023/10/25 07:38:38;;;;;;;28.10;18.10;;;;;;;16.39;75.11;99987.84;4958975;28;101630;-81
2023/10/25 07:41:06;;;;;;;29.70;18.85;;;;;;;16.50;74.62;99984.41;4961866;28;100996;-79
2023/10/25 07:43:32;;;;;;;27.35;17.77;;;;;;;16.68;74.44;99983.09;4956898;28;96906;-79
2023/10/25 07:45:59;;;;;;;27.55;17.38;;;;;;;16.71;73.54;99982.91;4953549;28;97243;-81
2023/10/25 07:48:25;;;;;;;24.08;17.02;;;;;;;16.67;73.34;99989.44;4950848;28;98282;-81
2023/10/25 07:50:52;;;;;;;23.25;15.50;;;;;;;16.80;72.53;99990.25;4945730;28;99607;-84
2023/10/25 07:53:18;;;;;;;21.65;15.05;;;;;;;16.88;72.24;99984.31;4956258;28;96735;-82
2023/10/25 07:55:45;;;;;;;21.98;14.85;;;;;;;17.03;72.04;99989.41;4952246;28;97212;-82
2023/10/25 07:58:14;;;;;;;22.52;15.43;;;;;;;17.18;70.99;99986.56;4949148;28;98356;-84
2023/10/25 08:00:41;;;;;;;22.30;15.70;;;;;;;17.20;70.51;99979.28;4959278;28;98713;-84
2023/10/25 08:03:07;;;;;;;24.52;16.13;;;;;;;17.31;70.77;99982.00;4946117;28;97971;-83
2023/10/25 08:05:34;;;;;;;18.55;14.20;;;;;;;17.27;69.89;99972.50;4949432;28;96967;-81
2023/10/25 08:08:00;;;;;;;20.00;14.20;;;;;;;17.44;69.64;99977.44;4949645;28;100195;-83
2023/10/25 08:10:27;;;;;;;21.05;14.10;;;;;;;17.25;68.64;99966.44;4956052;28;96834;-79
2023/10/25 08:12:57;;;;;;;21.92;14.20;;;;;;;17.26;69.13;99963.66;4949026;28;96763;-83
2023/10/25 08:15:24;;;;;;;20.40;14.05;;;;;;;17.11;68.95;99954.13;4950391;28;97033;-80
2023/10/25 08:17:53;;;;;;;21.05;14.15;;;;;;;17.32;68.75;99959.69;4948007;28;99069;-80
2023/10/25 08:20:20;;;;;;;19.42;14.23;;;;;;;17.49;68.40;99961.91;4956041;28;98498;-82
2023/10/25 08:22:47;;;;;;;24.17;14.88;;;;;;;18.05;66.12;99946.00;4960867;28;96816;-81
2023/10/25 08:25:14;;;;;;;20.10;14.82;;;;;;;18.25;64.90;99948.78;4962444;28;96857;-83
2023/10/25 08:27:41;;;;;;;22.13;14.45;;;;;;;18.16;64.97;99951.34;4957273;28;99976;-81
2023/10/25 08:30:08;;;;;;;19.73;14.70;;;;;;;18.56;64.11;99951.72;4953619;28;97692;-81
2023/10/25 08:32:37;;;;;;;20.45;14.48;;;;;;;18.75;62.68;99951.06;4953792;28;96744;-82
2023/10/25 08:35:04;;;;;;;24.55;15.95;;;;;;;18.53;62.74;99957.28;4953264;28;97066;-82
2023/10/25 08:37:31;;;;;;;22.08;15.73;;;;;;;18.03;65.15;99959.50;4950968;28;100053;-82
2023/10/25 08:39:58;;;;;;;23.77;14.90;;;;;;;17.89;65.45;99959.72;4953078;28;100967;-82
2023/10/25 08:42:25;;;;;;;23.75;15.35;;;;;;;17.73;66.36;99960.03;4954113;28;96726;-82
2023/10/25 08:44:51;;;;;;;21.90;15.23;;;;;;;17.90;66.75;99954.25;4951495;28;97062;-82
2023/10/25 08:47:18;;;;;;;19.25;13.48;;;;;;;18.16;66.03;99946.84;4943745;28;98339;-82
2023/10/25 08:49:46;;;;;;;19.45;13.52;;;;;;;18.34;65.28;99955.22;4949440;28;101698;-84
2023/10/25 08:52:13;;;;;;;20.73;13.85;;;;;;;18.30;65.49;99957.31;4947219;28;97381;-84
2023/10/25 08:54:40;;;;;;;25.60;15.00;;;;;;;18.48;64.36;99965.69;4951115;28;97381;-83
2023/10/25 08:57:07;;;;;;;20.10;13.40;;;;;;;19.09;62.15;99958.03;4953479;28;101105;-83
2023/10/25 08:59:41;;;;;;;16.33;12.85;;;;;;;19.25;60.60;99968.28;4952709;28;99451;-79
2023/10/25 09:02:09;;;;;;;18.92;12.95;;;;;;;19.09;60.65;99963.38;4956039;28;97019;-85
2023/10/25 09:04:36;;;;;;;17.90;12.77;;;;;;;18.55;61.86;99969.59;4958858;28;96795;-83
2023/10/25 09:07:27;;;;;;;21.95;13.27;;;;;;;18.50;61.92;99978.94;4954207;28;101696;-84
2023/10/25 09:09:54;;;;;;;21.15;13.18;;;;;;;18.56;62.85;99973.97;4958896;28;100959;-82
2023/10/25 09:12:21;;;;;;;21.40;13.80;;;;;;;18.79;61.71;99973.91;4949263;28;97018;-84
2023/10/25 09:14:48;;;;;;;21.75;13.93;;;;;;;18.55;62.74;99982.97;4949428;28;97203;-83
2023/10/25 09:17:14;;;;;;;20.65;12.73;;;;;;;18.44;62.38;99990.13;4948549;28;101799;-82
2023/10/25 09:19:43;;;;;;;22.00;12.82;;;;;;;18.42;62.66;99982.22;4948439;28;100467;-83
2023/10/25 09:22:22;;;;;;;23.70;13.80;;;;;;;18.14;63.69;99982.69;4956326;28;98630;-84
2023/10/25 09:24:49;;;;;;;15.30;11.85;;;;;;;18.14;63.92;99972.84;4954226;28;96721;-84
2023/10/25 09:27:16;;;;;;;21.52;13.32;;;;;;;18.30;63.69;99973.34;4943960;28;97751;-84
2023/10/25 09:29:42;;;;;;;20.77;12.70;;;;;;;18.09;64.91;99977.72;4946033;28;98172;-85
2023/10/25 09:32:09;;;;;;;21.40;11.77;;;;;;;18.23;64.41;99971.28;4949698;28;97138;-85
2023/10/25 09:34:36;;;;;;;21.85;11.93;;;;;;;18.26;65.07;99960.34;4953365;28;96917;-86
2023/10/25 09:37:04;;;;;;;16.52;11.55;;;;;;;18.09;64.59;99961.69;4952099;28;99229;-85
2023/10/25 09:39:32;;;;;;;28.05;12.10;;;;;;;18.79;62.28;99963.22;4949119;28;98191;-86
2023/10/25 09:42:03;;;;;;;16.48;12.20;;;;;;;18.67;61.66;99951.69;4955680;28;96942;-85
2023/10/25 09:44:37;;;;;;;19.55;13.07;;;;;;;19.24;60.24;99954.06;4951647;28;96832;-83
2023/10/25 09:47:06;;;;;;;20.67;13.10;;;;;;;19.24;58.86;99948.69;4952857;28;100591;-84
2023/10/25 09:49:34;;;;;;;17.30;12.60;;;;;;;19.07;60.55;99958.16;4948866;28;99621;-84
2023/10/25 09:52:06;;;;;;;20.05;13.80;;;;;;;18.90;61.43;99956.03;4949245;28;96773;-85
2023/10/25 09:54:36;;;;;;;15.93;12.23;;;;;;;18.78;60.56;99956.16;4950846;28;96885;-84
2023/10/25 09:57:04;;;;;;;15.15;12.40;;;;;;;18.76;62.04;99963.47;4953950;28;101131;-85
2023/10/25 09:59:32;;;;;;;18.13;12.65;;;;;;;18.72;62.66;99952.16;4944850;28;98574;-84
2023/10/25 10:02:04;;;;;;;20.77;12.98;;;;;;;18.51;62.69;99957.38;4951009;28;97004;-82
2023/10/25 10:04:39;;;;;;;22.67;12.60;;;;;;;18.41;63.28;99955.59;4933382;28;96917;-83
2023/10/25 10:07:13;;;;;;;17.42;12.15;;;;;;;18.60;61.49;99954.00;4949879;28;98138;-84
2023/10/25 10:09:51;;;;;;;18.15;11.57;;;;;;;18.54;62.00;99954.47;4951486;28;99291;-80
2023/10/25 10:12:17;;;;;;;18.00;10.75;;;;;;;18.65;61.34;99959.84;4949224;28;97194;-86
2023/10/25 10:14:45;;;;;;;16.85;10.65;;;;;;;18.48;62.73;99948.78;4950064;28;97321;-86
2023/10/25 10:17:14;;;;;;;15.20;10.88;;;;;;;18.83;nan;99948.63;4947020;28;99672;-84
2023/10/25 10:19:42;;;;;;;16.15;11.13;;;;;;;19.04;60.96;99952.19;4951089;28;100434;-82
2023/10/25 10:22:11;;;;;;;15.07;9.75;;;;;;;18.99;60.27;99946.38;4948307;28;96689;-82
2023/10/25 10:24:44;;;;;;;17.65;10.00;;;;;;;18.91;61.57;99948.81;4945603;28;97074;-83
2023/10/25 10:27:12;;;;;;;16.95;9.52;;;;;;;18.87;60.82;99939.34;4942131;28;97131;-83
2023/10/25 10:29:40;;;;;;;12.65;9.30;;;;;;;18.81;60.37;99938.03;4948718;28;100333;-81
2023/10/25 10:32:09;;;;;;;11.00;7.13;;;;;;;18.85;59.41;99939.47;4950280;28;97921;-84
2023/10/25 10:34:42;;;;;;;12.93;7.43;;;;;;;19.01;59.00;99936.38;4959069;28;96853;-85
2023/10/25 10:37:11;;;;;;;14.52;7.55;;;;;;;19.20;58.38;99936.56;4956919;28;99650;-85
2023/10/25 10:40:16;;;;;;;11.25;7.05;;;;;;;19.19;58.76;99937.53;4965830;28;97284;-88
2023/10/25 10:42:43;;;;;;;13.23;8.00;;;;;;;19.30;58.83;99942.81;4967967;28;96462;-81
2023/10/25 10:45:14;;;;;;;9.90;8.13;;;;;;;19.74;57.78;99923.00;4966437;28;96900;-87
2023/10/25 10:47:43;;;;;;;14.10;8.10;;;;;;;19.72;56.25;99924.97;4955928;28;101793;-88
2023/10/25 10:50:12;;;;;;;11.85;8.05;;;;;;;19.29;57.42;99929.59;4958691;28;99640;-86
2023/10/25 10:52:40;;;;;;;14.05;8.15;;;;;;;19.35;58.31;99916.53;4951785;28;96798;-84
2023/10/25 10:55:08;;;;;;;12.52;7.28;;;;;;;19.24;59.04;99916.56;4952948;28;96816;-85
2023/10/25 10:57:37;;;;;;;11.95;6.72;;;;;;;19.02;59.31;99912.19;4958029;28;101126;-84
2023/10/25 11:00:07;;;;;;;10.48;6.88;;;;;;;19.48;58.60;99914.53;4957231;28;99203;-85
2023/10/25 11:02:35;;;;;;;11.57;6.20;;;;;;;19.52;57.77;99916.94;4955380;28;97156;-84
2023/10/25 11:05:02;;;;;;;10.73;5.68;;;;;;;19.46;57.35;99915.63;4954459;28;96778;-85
2023/10/25 11:07:29;;;;;;;10.15;4.90;;;;;;;19.45;57.22;99914.75;4946845;28;97878;-84
2023/10/25 11:09:56;;;;;;;7.57;4.55;;;;;;;19.58;57.23;99908.38;4956693;28;101344;-85
2023/10/25 11:12:24;;;;;;;7.90;5.03;;;;;;;19.36;56.93;99902.13;4959097;28;96788;-84
2023/10/25 11:14:52;;;;;;;7.30;5.40;;;;;;;19.37;57.19;99903.81;4950282;28;97330;-83
2023/10/25 11:17:20;;;;;;;8.40;4.38;;;;;;;19.27;57.13;99908.28;4957143;28;99334;-84
2023/10/25 11:19:48;;;;;;;9.65;5.40;;;;;;;19.56;57.23;99913.84;4955066;28;99647;-83
2023/10/25 11:22:15;;;;;;;10.20;5.45;;;;;;;19.48;56.73;99909.16;4956494;28;97382;-85